<?xml version='1.0' encoding='UTF-8'?><gpx version="1.1" creator="JPX - https://github.com/jenetics/jpx" xmlns="http://www.topografix.com/GPX/1/1"><trk><trkseg><trkpt lat="45.5175022440141" lon="10.413804161567093"><ele>197.00000000000003</ele><time>2026-03-29T11:09:27.999Z</time></trkpt><trkpt lat="45.51755305532416" lon="10.413744696633009"><ele>197.0</ele><time>2026-03-29T11:09:30.999Z</time></trkpt><trkpt lat="45.51748785525944" lon="10.413665106358238"><ele>197.0</ele><time>2026-03-29T11:09:33.999Z</time></trkpt><trkpt lat="45.51737425404021" lon="10.413638963492499"><ele>197.0</ele><time>2026-03-29T11:09:35.999Z</time></trkpt><trkpt lat="45.51730908046828" lon="10.41363487116611"><ele>197.00000000000003</ele><time>2026-03-29T11:09:36.999Z</time></trkpt><trkpt lat="45.51721498815277" lon="10.413685603174955"><ele>197.0</ele><time>2026-03-29T11:09:38.999Z</time></trkpt><trkpt lat="45.51718930105505" lon="10.413851064736734"><ele>197.00000000000003</ele><time>2026-03-29T11:09:40.999Z</time></trkpt><trkpt lat="45.51719954817747" lon="10.41397091103747"><ele>197.0</ele><time>2026-03-29T11:09:41.999Z</time></trkpt><trkpt lat="45.517217390272" lon="10.414099367036668"><ele>197.0</ele><time>2026-03-29T11:09:42.999Z</time></trkpt><trkpt lat="45.51721463378374" lon="10.414242903965008"><ele>197.0</ele><time>2026-03-29T11:09:43.999Z</time></trkpt><trkpt lat="45.517232127034035" lon="10.414388765018227"><ele>197.00000000000003</ele><time>2026-03-29T11:09:44.999Z</time></trkpt><trkpt lat="45.51724724852901" lon="10.414480174645917"><ele>197.0</ele><time>2026-03-29T11:09:45.999Z</time></trkpt><trkpt lat="45.5172212475415" lon="10.41462265797015"><ele>196.39999999999998</ele><time>2026-03-29T11:09:47.999Z</time></trkpt><trkpt lat="45.517196058222865" lon="10.414705813754761"><ele>195.79999999999998</ele><time>2026-03-29T11:09:49.999Z</time></trkpt><trkpt lat="45.51732733002731" lon="10.414848271206372"><ele>195.2</ele><time>2026-03-29T11:09:50.999Z</time></trkpt><trkpt lat="45.5173789895257" lon="10.4149694204157"><ele>194.6</ele><time>2026-03-29T11:09:51.999Z</time></trkpt><trkpt lat="45.517430418580716" lon="10.415101590646298"><ele>194.0</ele><time>2026-03-29T11:09:52.999Z</time></trkpt><trkpt lat="45.51748773158422" lon="10.415233315170392"><ele>194.0</ele><time>2026-03-29T11:09:53.999Z</time></trkpt><trkpt lat="45.517568516346856" lon="10.415361166512"><ele>194.0</ele><time>2026-03-29T11:09:54.999Z</time></trkpt><trkpt lat="45.517664607886964" lon="10.415472872176368"><ele>194.0</ele><time>2026-03-29T11:09:55.999Z</time></trkpt><trkpt lat="45.517775367339276" lon="10.415567537559742"><ele>194.0</ele><time>2026-03-29T11:09:56.999Z</time></trkpt><trkpt lat="45.51791513845892" lon="10.415651597094639"><ele>193.75</ele><time>2026-03-29T11:09:57.999Z</time></trkpt><trkpt lat="45.518033889145315" lon="10.415737034801623"><ele>193.5</ele><time>2026-03-29T11:09:58.999Z</time></trkpt><trkpt lat="45.51816010354512" lon="10.415838827194019"><ele>193.25</ele><time>2026-03-29T11:09:59.999Z</time></trkpt><trkpt lat="45.51826408524862" lon="10.415980242067366"><ele>193.0</ele><time>2026-03-29T11:10:00.999Z</time></trkpt><trkpt lat="45.51836613400092" lon="10.416124625008807"><ele>193.0</ele><time>2026-03-29T11:10:01.999Z</time></trkpt><trkpt lat="45.51846662839732" lon="10.416294520005588"><ele>193.0</ele><time>2026-03-29T11:10:02.999Z</time></trkpt><trkpt lat="45.51858062528303" lon="10.416445041257711"><ele>193.0</ele><time>2026-03-29T11:10:03.999Z</time></trkpt><trkpt lat="45.51868200037124" lon="10.416612259653972"><ele>193.25</ele><time>2026-03-29T11:10:04.999Z</time></trkpt><trkpt lat="45.51878381791733" lon="10.41677102650502"><ele>193.5</ele><time>2026-03-29T11:10:05.999Z</time></trkpt><trkpt lat="45.518868716127656" lon="10.416941821571395"><ele>193.75</ele><time>2026-03-29T11:10:06.999Z</time></trkpt><trkpt lat="45.51896371349522" lon="10.417100410944698"><ele>194.0</ele><time>2026-03-29T11:10:07.999Z</time></trkpt><trkpt lat="45.51907219469337" lon="10.417245343902076"><ele>194.5</ele><time>2026-03-29T11:10:08.999Z</time></trkpt><trkpt lat="45.51915131010459" lon="10.417382639756445"><ele>195.0</ele><time>2026-03-29T11:10:09.998Z</time></trkpt><trkpt lat="45.51923157376884" lon="10.417514198497134"><ele>195.5</ele><time>2026-03-29T11:10:10.998Z</time></trkpt><trkpt lat="45.51932024359858" lon="10.417639612752408"><ele>196.0</ele><time>2026-03-29T11:10:11.998Z</time></trkpt><trkpt lat="45.51941887530922" lon="10.41775077946489"><ele>196.0</ele><time>2026-03-29T11:10:12.998Z</time></trkpt><trkpt lat="45.51953012720945" lon="10.417854178105515"><ele>196.0</ele><time>2026-03-29T11:10:13.998Z</time></trkpt><trkpt lat="45.519645567511475" lon="10.417949520672531"><ele>196.0</ele><time>2026-03-29T11:10:14.998Z</time></trkpt><trkpt lat="45.51975775041522" lon="10.418054391094659"><ele>196.0</ele><time>2026-03-29T11:10:15.998Z</time></trkpt><trkpt lat="45.519848570382045" lon="10.418197967178642"><ele>197.0</ele><time>2026-03-29T11:10:16.998Z</time></trkpt><trkpt lat="45.51994214383955" lon="10.418339458435693"><ele>198.0</ele><time>2026-03-29T11:10:17.998Z</time></trkpt><trkpt lat="45.52003315568636" lon="10.418484864304792"><ele>199.0</ele><time>2026-03-29T11:10:18.998Z</time></trkpt><trkpt lat="45.520122631448004" lon="10.418606933043122"><ele>200.0</ele><time>2026-03-29T11:10:19.998Z</time></trkpt><trkpt lat="45.520173821942585" lon="10.418746497693657"><ele>200.25</ele><time>2026-03-29T11:10:20.998Z</time></trkpt><trkpt lat="45.52022038489141" lon="10.418902715386187"><ele>200.5</ele><time>2026-03-29T11:10:21.998Z</time></trkpt><trkpt lat="45.520270404580195" lon="10.41908080750991"><ele>200.75</ele><time>2026-03-29T11:10:22.998Z</time></trkpt><trkpt lat="45.52031813587724" lon="10.41925075187874"><ele>201.0</ele><time>2026-03-29T11:10:23.998Z</time></trkpt><trkpt lat="45.520365180009485" lon="10.419418249688267"><ele>200.75</ele><time>2026-03-29T11:10:24.998Z</time></trkpt><trkpt lat="45.52041737944082" lon="10.41956909627976"><ele>200.5</ele><time>2026-03-29T11:10:25.998Z</time></trkpt><trkpt lat="45.520500558005224" lon="10.419691737455707"><ele>200.25</ele><time>2026-03-29T11:10:26.998Z</time></trkpt><trkpt lat="45.52056548245869" lon="10.419836083602554"><ele>200.0</ele><time>2026-03-29T11:10:27.998Z</time></trkpt><trkpt lat="45.5206313496004" lon="10.419953780472918"><ele>199.8</ele><time>2026-03-29T11:10:28.998Z</time></trkpt><trkpt lat="45.52070476455452" lon="10.420054062213845"><ele>199.6</ele><time>2026-03-29T11:10:29.998Z</time></trkpt><trkpt lat="45.52073254069555" lon="10.420149853262249"><ele>199.39999999999998</ele><time>2026-03-29T11:10:30.998Z</time></trkpt><trkpt lat="45.520809897164995" lon="10.420247937061726"><ele>199.2</ele><time>2026-03-29T11:10:32.998Z</time></trkpt><trkpt lat="45.52085977764135" lon="10.420329970374466"><ele>199.0</ele><time>2026-03-29T11:10:34.998Z</time></trkpt><trkpt lat="45.520753313991875" lon="10.420453421788416"><ele>198.39999999999998</ele><time>2026-03-29T11:10:35.998Z</time></trkpt><trkpt lat="45.52070478495959" lon="10.420548704408404"><ele>197.8</ele><time>2026-03-29T11:10:36.998Z</time></trkpt><trkpt lat="45.52064980147974" lon="10.42064430252205"><ele>197.2</ele><time>2026-03-29T11:10:37.998Z</time></trkpt><trkpt lat="45.520605504650035" lon="10.420751991878443"><ele>196.60000000000002</ele><time>2026-03-29T11:10:38.998Z</time></trkpt><trkpt lat="45.520642302762916" lon="10.420916080789267"><ele>196.0</ele><time>2026-03-29T11:10:40Z</time></trkpt><trkpt lat="45.52066960530965" lon="10.421077143000415"><ele>196.0</ele><time>2026-03-29T11:10:41Z</time></trkpt><trkpt lat="45.5207052412777" lon="10.421254732248645"><ele>196.0</ele><time>2026-03-29T11:10:42Z</time></trkpt><trkpt lat="45.520744633392745" lon="10.421438963570834"><ele>196.0</ele><time>2026-03-29T11:10:43Z</time></trkpt><trkpt lat="45.52080433210359" lon="10.421612332761507"><ele>196.0</ele><time>2026-03-29T11:10:44Z</time></trkpt><trkpt lat="45.52087012780319" lon="10.421790645433834"><ele>195.0</ele><time>2026-03-29T11:10:45Z</time></trkpt><trkpt lat="45.520950324522076" lon="10.421957267264737"><ele>194.0</ele><time>2026-03-29T11:10:46Z</time></trkpt><trkpt lat="45.5210065050785" lon="10.422106975320848"><ele>193.0</ele><time>2026-03-29T11:10:47Z</time></trkpt><trkpt lat="45.52102805509884" lon="10.422251960024639"><ele>192.0</ele><time>2026-03-29T11:10:48Z</time></trkpt><trkpt lat="45.520983847491046" lon="10.422375805371527"><ele>191.75</ele><time>2026-03-29T11:10:49Z</time></trkpt><trkpt lat="45.52095271580579" lon="10.422552339980006"><ele>191.5</ele><time>2026-03-29T11:10:50Z</time></trkpt><trkpt lat="45.52097132622913" lon="10.422735407353743"><ele>191.25</ele><time>2026-03-29T11:10:51Z</time></trkpt><trkpt lat="45.52098432827226" lon="10.422927736898027"><ele>191.0</ele><time>2026-03-29T11:10:52Z</time></trkpt><trkpt lat="45.5210086501317" lon="10.42312702748185"><ele>190.33333333333331</ele><time>2026-03-29T11:10:53Z</time></trkpt><trkpt lat="45.5210275607573" lon="10.423331553322113"><ele>189.66666666666666</ele><time>2026-03-29T11:10:54Z</time></trkpt><trkpt lat="45.521048705363306" lon="10.423546560674692"><ele>189.0</ele><time>2026-03-29T11:10:55Z</time></trkpt><trkpt lat="45.521054373914836" lon="10.42376839526317"><ele>189.33333333333334</ele><time>2026-03-29T11:10:56Z</time></trkpt><trkpt lat="45.52103182269867" lon="10.423995345079833"><ele>189.66666666666669</ele><time>2026-03-29T11:10:57Z</time></trkpt><trkpt lat="45.52101028293487" lon="10.424212441770683"><ele>190.0</ele><time>2026-03-29T11:10:58Z</time></trkpt><trkpt lat="45.520983644126844" lon="10.424429582541523"><ele>190.0</ele><time>2026-03-29T11:10:59Z</time></trkpt><trkpt lat="45.52095922275649" lon="10.424634932843588"><ele>190.0</ele><time>2026-03-29T11:11:00Z</time></trkpt><trkpt lat="45.520937250492324" lon="10.424833145046676"><ele>190.0</ele><time>2026-03-29T11:11:01Z</time></trkpt><trkpt lat="45.52091770357213" lon="10.425016275493673"><ele>190.0</ele><time>2026-03-29T11:11:02Z</time></trkpt><trkpt lat="45.52091003019321" lon="10.425202937276495"><ele>190.0</ele><time>2026-03-29T11:11:03Z</time></trkpt><trkpt lat="45.52088361026728" lon="10.425390764694674"><ele>190.0</ele><time>2026-03-29T11:11:04Z</time></trkpt><trkpt lat="45.52085463873417" lon="10.425587249719454"><ele>190.0</ele><time>2026-03-29T11:11:05Z</time></trkpt><trkpt lat="45.52082508479795" lon="10.425786009835308"><ele>190.0</ele><time>2026-03-29T11:11:06Z</time></trkpt><trkpt lat="45.520804654993995" lon="10.425995923388799"><ele>190.33333333333334</ele><time>2026-03-29T11:11:07Z</time></trkpt><trkpt lat="45.52078510351512" lon="10.426209068180905"><ele>190.66666666666666</ele><time>2026-03-29T11:11:08Z</time></trkpt><trkpt lat="45.52078774498393" lon="10.426438825311138"><ele>191.0</ele><time>2026-03-29T11:11:08.999Z</time></trkpt><trkpt lat="45.52079893764845" lon="10.426672005778187"><ele>190.0</ele><time>2026-03-29T11:11:09.999Z</time></trkpt><trkpt lat="45.52080531678076" lon="10.426912732716303"><ele>189.0</ele><time>2026-03-29T11:11:10.999Z</time></trkpt><trkpt lat="45.52081100835919" lon="10.427150379387516"><ele>188.0</ele><time>2026-03-29T11:11:11.999Z</time></trkpt><trkpt lat="45.52080155509908" lon="10.427390856088753"><ele>187.66666666666666</ele><time>2026-03-29T11:11:12.999Z</time></trkpt><trkpt lat="45.520821696213126" lon="10.427630445813868"><ele>187.33333333333334</ele><time>2026-03-29T11:11:13.999Z</time></trkpt><trkpt lat="45.52084257253768" lon="10.427865218389856"><ele>187.0</ele><time>2026-03-29T11:11:14.999Z</time></trkpt><trkpt lat="45.52086976260044" lon="10.428133947703229"><ele>187.0</ele><time>2026-03-29T11:11:15.999Z</time></trkpt><trkpt lat="45.52089799327553" lon="10.428298640893532"><ele>187.0</ele><time>2026-03-29T11:11:16.999Z</time></trkpt><trkpt lat="45.52091947357043" lon="10.428501586895392"><ele>187.0</ele><time>2026-03-29T11:11:17.999Z</time></trkpt><trkpt lat="45.520966061231476" lon="10.42871220769647"><ele>187.0</ele><time>2026-03-29T11:11:18.999Z</time></trkpt><trkpt lat="45.52100982597353" lon="10.42890000019662"><ele>186.33333333333334</ele><time>2026-03-29T11:11:19.999Z</time></trkpt><trkpt lat="45.52105455693248" lon="10.429090261978386"><ele>185.66666666666666</ele><time>2026-03-29T11:11:20.999Z</time></trkpt><trkpt lat="45.52109821616389" lon="10.429306552666985"><ele>185.0</ele><time>2026-03-29T11:11:21.999Z</time></trkpt><trkpt lat="45.52112155579485" lon="10.429533985648458"><ele>185.33333333333331</ele><time>2026-03-29T11:11:22.999Z</time></trkpt><trkpt lat="45.52113920930286" lon="10.42977946416491"><ele>185.66666666666666</ele><time>2026-03-29T11:11:23.999Z</time></trkpt><trkpt lat="45.52116377507861" lon="10.430010167793888"><ele>186.0</ele><time>2026-03-29T11:11:24.999Z</time></trkpt><trkpt lat="45.52118894954333" lon="10.430255933971146"><ele>186.0</ele><time>2026-03-29T11:11:25.999Z</time></trkpt><trkpt lat="45.5212087129352" lon="10.430482985760968"><ele>186.0</ele><time>2026-03-29T11:11:26.999Z</time></trkpt><trkpt lat="45.52122929947883" lon="10.43074767589222"><ele>186.0</ele><time>2026-03-29T11:11:27.999Z</time></trkpt><trkpt lat="45.521247208735126" lon="10.431002952963116"><ele>187.66666666666666</ele><time>2026-03-29T11:11:28.999Z</time></trkpt><trkpt lat="45.521265640599424" lon="10.431245655715056"><ele>189.33333333333331</ele><time>2026-03-29T11:11:29.999Z</time></trkpt><trkpt lat="45.521304070094544" lon="10.431494274432778"><ele>191.0</ele><time>2026-03-29T11:11:30.999Z</time></trkpt><trkpt lat="45.52130931266421" lon="10.431682006751702"><ele>191.0</ele><time>2026-03-29T11:11:31.999Z</time></trkpt><trkpt lat="45.52133804365767" lon="10.431869262922142"><ele>191.0</ele><time>2026-03-29T11:11:32.999Z</time></trkpt><trkpt lat="45.52137464047815" lon="10.432030872414483"><ele>191.0</ele><time>2026-03-29T11:11:33.999Z</time></trkpt><trkpt lat="45.52141976445687" lon="10.432156665034496"><ele>191.0</ele><time>2026-03-29T11:11:34.999Z</time></trkpt><trkpt lat="45.521461899008536" lon="10.432274502588328"><ele>191.0</ele><time>2026-03-29T11:11:35.999Z</time></trkpt><trkpt lat="45.521501123731596" lon="10.432372162570907"><ele>191.66666666666666</ele><time>2026-03-29T11:11:36.999Z</time></trkpt><trkpt lat="45.52155090397706" lon="10.432526674248292"><ele>192.33333333333331</ele><time>2026-03-29T11:11:38.999Z</time></trkpt><trkpt lat="45.521784124563496" lon="10.432563157783404"><ele>193.0</ele><time>2026-03-29T11:11:40.999Z</time></trkpt><trkpt lat="45.521911103561" lon="10.432537170656147"><ele>193.0</ele><time>2026-03-29T11:11:41.999Z</time></trkpt><trkpt lat="45.522062082979794" lon="10.43253406077713"><ele>193.0</ele><time>2026-03-29T11:11:42.999Z</time></trkpt><trkpt lat="45.52224617037682" lon="10.432533897380576"><ele>193.0</ele><time>2026-03-29T11:11:43.999Z</time></trkpt><trkpt lat="45.52238766474978" lon="10.43256601645475"><ele>194.33333333333331</ele><time>2026-03-29T11:11:44.999Z</time></trkpt><trkpt lat="45.522549582568004" lon="10.432597134338103"><ele>195.66666666666669</ele><time>2026-03-29T11:11:45.999Z</time></trkpt><trkpt lat="45.52272216003064" lon="10.432637251928846"><ele>197.0</ele><time>2026-03-29T11:11:46.999Z</time></trkpt><trkpt lat="45.52290452041812" lon="10.432656113440764"><ele>198.0</ele><time>2026-03-29T11:11:47.999Z</time></trkpt><trkpt lat="45.52309688237162" lon="10.432704777401078"><ele>199.0</ele><time>2026-03-29T11:11:48.999Z</time></trkpt><trkpt lat="45.52326323695356" lon="10.432736595186597"><ele>200.0</ele><time>2026-03-29T11:11:49.999Z</time></trkpt><trkpt lat="45.52343601419943" lon="10.432779130844674"><ele>200.0</ele><time>2026-03-29T11:11:50.999Z</time></trkpt><trkpt lat="45.523606834606184" lon="10.432845381049042"><ele>200.0</ele><time>2026-03-29T11:11:51.999Z</time></trkpt><trkpt lat="45.523772425913585" lon="10.432948803462853"><ele>200.0</ele><time>2026-03-29T11:11:52.999Z</time></trkpt><trkpt lat="45.52394388138602" lon="10.433078961937385"><ele>201.66666666666669</ele><time>2026-03-29T11:11:53.999Z</time></trkpt><trkpt lat="45.524101281892285" lon="10.433244713394659"><ele>203.33333333333331</ele><time>2026-03-29T11:11:54.999Z</time></trkpt><trkpt lat="45.52424002783919" lon="10.433421571384333"><ele>205.0</ele><time>2026-03-29T11:11:55.999Z</time></trkpt><trkpt lat="45.52438688603147" lon="10.433604570697456"><ele>205.0</ele><time>2026-03-29T11:11:56.999Z</time></trkpt><trkpt lat="45.524541217877086" lon="10.433786676688042"><ele>205.0</ele><time>2026-03-29T11:11:57.999Z</time></trkpt><trkpt lat="45.524698102366905" lon="10.433965600275872"><ele>205.0</ele><time>2026-03-29T11:11:58.999Z</time></trkpt><trkpt lat="45.52485878524071" lon="10.434149384746659"><ele>205.33333333333331</ele><time>2026-03-29T11:11:59.999Z</time></trkpt><trkpt lat="45.52501541991586" lon="10.434333537593307"><ele>205.66666666666669</ele><time>2026-03-29T11:12:00.999Z</time></trkpt><trkpt lat="45.525175496959434" lon="10.434524249555894"><ele>206.0</ele><time>2026-03-29T11:12:01.999Z</time></trkpt><trkpt lat="45.52533663343026" lon="10.434718831777083"><ele>206.33333333333334</ele><time>2026-03-29T11:12:02.999Z</time></trkpt><trkpt lat="45.52550083750855" lon="10.434909672636188"><ele>206.66666666666669</ele><time>2026-03-29T11:12:03.999Z</time></trkpt><trkpt lat="45.52566561293747" lon="10.435103384137484"><ele>207.0</ele><time>2026-03-29T11:12:04.999Z</time></trkpt><trkpt lat="45.525824238136565" lon="10.43530085793129"><ele>207.0</ele><time>2026-03-29T11:12:05.999Z</time></trkpt><trkpt lat="45.52597776140473" lon="10.435497519135346"><ele>207.0</ele><time>2026-03-29T11:12:06.999Z</time></trkpt><trkpt lat="45.5261297464019" lon="10.435696665457925"><ele>207.0</ele><time>2026-03-29T11:12:07.999Z</time></trkpt><trkpt lat="45.526270923364365" lon="10.435908234789165"><ele>208.33333333333331</ele><time>2026-03-29T11:12:08.999Z</time></trkpt><trkpt lat="45.52639771121069" lon="10.43613173371323"><ele>209.66666666666666</ele><time>2026-03-29T11:12:09.999Z</time></trkpt><trkpt lat="45.52651010622769" lon="10.43636733958589"><ele>211.0</ele><time>2026-03-29T11:12:10.998Z</time></trkpt><trkpt lat="45.526614847361216" lon="10.436604601999843"><ele>211.66666666666666</ele><time>2026-03-29T11:12:11.998Z</time></trkpt><trkpt lat="45.52672098397346" lon="10.43683245334603"><ele>212.33333333333331</ele><time>2026-03-29T11:12:12.998Z</time></trkpt><trkpt lat="45.526840251299234" lon="10.437049788073269"><ele>213.0</ele><time>2026-03-29T11:12:13.998Z</time></trkpt><trkpt lat="45.52697300040963" lon="10.437239377493844"><ele>213.33333333333331</ele><time>2026-03-29T11:12:14.998Z</time></trkpt><trkpt lat="45.527127650231016" lon="10.437410621845869"><ele>213.66666666666666</ele><time>2026-03-29T11:12:15.998Z</time></trkpt><trkpt lat="45.527299565611514" lon="10.437564353062129"><ele>214.0</ele><time>2026-03-29T11:12:16.998Z</time></trkpt><trkpt lat="45.52746827730735" lon="10.437708078722297"><ele>214.0</ele><time>2026-03-29T11:12:17.998Z</time></trkpt><trkpt lat="45.52763688772935" lon="10.437855529766512"><ele>214.0</ele><time>2026-03-29T11:12:18.998Z</time></trkpt><trkpt lat="45.52779661205129" lon="10.438013612145655"><ele>214.0</ele><time>2026-03-29T11:12:19.998Z</time></trkpt><trkpt lat="45.52793806798567" lon="10.438182681754322"><ele>214.33333333333331</ele><time>2026-03-29T11:12:20.998Z</time></trkpt><trkpt lat="45.528062194367436" lon="10.438369868499771"><ele>214.66666666666669</ele><time>2026-03-29T11:12:21.998Z</time></trkpt><trkpt lat="45.528155155156874" lon="10.438559583161924"><ele>215.0</ele><time>2026-03-29T11:12:22.998Z</time></trkpt><trkpt lat="45.528235398486395" lon="10.43876372252144"><ele>216.0</ele><time>2026-03-29T11:12:23.998Z</time></trkpt><trkpt lat="45.52831462198298" lon="10.438982960253885"><ele>217.0</ele><time>2026-03-29T11:12:24.998Z</time></trkpt><trkpt lat="45.52839281166055" lon="10.439211790645242"><ele>218.0</ele><time>2026-03-29T11:12:25.998Z</time></trkpt><trkpt lat="45.5284756598311" lon="10.43945093711823"><ele>218.33333333333334</ele><time>2026-03-29T11:12:26.998Z</time></trkpt><trkpt lat="45.528562769449486" lon="10.439695786166778"><ele>218.66666666666669</ele><time>2026-03-29T11:12:27.998Z</time></trkpt><trkpt lat="45.52864062594053" lon="10.439908962292247"><ele>219.0</ele><time>2026-03-29T11:12:28.998Z</time></trkpt><trkpt lat="45.52869857139595" lon="10.440067559181761"><ele>219.0</ele><time>2026-03-29T11:12:29.998Z</time></trkpt><trkpt lat="45.52873423084029" lon="10.440161248976057"><ele>218.99999999999997</ele><time>2026-03-29T11:12:30.998Z</time></trkpt><trkpt lat="45.528660089739894" lon="10.440276004246618"><ele>218.99999999999997</ele><time>2026-03-29T11:12:33.998Z</time></trkpt><trkpt lat="45.52862709726918" lon="10.44038110925547"><ele>219.0</ele><time>2026-03-29T11:12:34.998Z</time></trkpt><trkpt lat="45.52860538841476" lon="10.440515883550729"><ele>219.0</ele><time>2026-03-29T11:12:35.998Z</time></trkpt><trkpt lat="45.52858474409647" lon="10.440668038119234"><ele>219.0</ele><time>2026-03-29T11:12:36.998Z</time></trkpt><trkpt lat="45.5285658540537" lon="10.440813162234795"><ele>219.0</ele><time>2026-03-29T11:12:37.998Z</time></trkpt><trkpt lat="45.52853557520427" lon="10.440964309832413"><ele>219.0</ele><time>2026-03-29T11:12:38.998Z</time></trkpt><trkpt lat="45.528491805638254" lon="10.44112894031256"><ele>219.0</ele><time>2026-03-29T11:12:39.998Z</time></trkpt><trkpt lat="45.52842848688457" lon="10.441303915054403"><ele>219.0</ele><time>2026-03-29T11:12:40.998Z</time></trkpt><trkpt lat="45.528358796812654" lon="10.441469345258625"><ele>218.99999999999997</ele><time>2026-03-29T11:12:41.998Z</time></trkpt><trkpt lat="45.52830281276437" lon="10.441600224729612"><ele>218.99999999999997</ele><time>2026-03-29T11:12:42.998Z</time></trkpt><trkpt lat="45.52826260056046" lon="10.441701313792041"><ele>219.0</ele><time>2026-03-29T11:12:43.998Z</time></trkpt><trkpt lat="45.52819673372703" lon="10.441815736497244"><ele>219.0</ele><time>2026-03-29T11:12:45.999Z</time></trkpt><trkpt lat="45.52813013110571" lon="10.44180146788643"><ele>219.0</ele><time>2026-03-29T11:12:46.999Z</time></trkpt><trkpt lat="45.52803240838604" lon="10.441756981504597"><ele>219.0</ele><time>2026-03-29T11:12:47.999Z</time></trkpt><trkpt lat="45.527882893055796" lon="10.441707329399533"><ele>219.0</ele><time>2026-03-29T11:12:48.999Z</time></trkpt><trkpt lat="45.527736331476454" lon="10.441638564424512"><ele>219.0</ele><time>2026-03-29T11:12:49.999Z</time></trkpt><trkpt lat="45.527615519839436" lon="10.441567339039922"><ele>218.39999999999998</ele><time>2026-03-29T11:12:50.999Z</time></trkpt><trkpt lat="45.527539624216786" lon="10.441518033133093"><ele>217.79999999999998</ele><time>2026-03-29T11:12:51.999Z</time></trkpt><trkpt lat="45.527423111482" lon="10.44146511321417"><ele>217.20000000000002</ele><time>2026-03-29T11:12:53.999Z</time></trkpt><trkpt lat="45.52733019021208" lon="10.441443887631007"><ele>216.60000000000002</ele><time>2026-03-29T11:12:56Z</time></trkpt><trkpt lat="45.52735534520887" lon="10.441569665648032"><ele>216.0</ele><time>2026-03-29T11:13:02Z</time></trkpt><trkpt lat="45.52747097266496" lon="10.441497489360025"><ele>216.0</ele><time>2026-03-29T11:13:04Z</time></trkpt><trkpt lat="45.527542714331545" lon="10.441512061050553"><ele>216.0</ele><time>2026-03-29T11:13:06Z</time></trkpt><trkpt lat="45.527593113511024" lon="10.441581152140667"><ele>216.0</ele><time>2026-03-29T11:13:08Z</time></trkpt><trkpt lat="45.52752597559845" lon="10.441634092214107"><ele>216.0</ele><time>2026-03-29T11:13:11.999Z</time></trkpt><trkpt lat="45.52745594047237" lon="10.441634493797245"><ele>216.0</ele><time>2026-03-29T11:13:22.999Z</time></trkpt><trkpt lat="45.52737742773114" lon="10.441622938830916"><ele>216.0</ele><time>2026-03-29T11:13:27.999Z</time></trkpt><trkpt lat="45.52730645158127" lon="10.44164566807665"><ele>216.0</ele><time>2026-03-29T11:13:28.999Z</time></trkpt><trkpt lat="45.52721549338927" lon="10.441699076557532"><ele>216.0</ele><time>2026-03-29T11:13:29.999Z</time></trkpt><trkpt lat="45.52710063565903" lon="10.441769313698403"><ele>216.00000000000003</ele><time>2026-03-29T11:13:30.999Z</time></trkpt><trkpt lat="45.52698563402907" lon="10.441817288196562"><ele>216.00000000000003</ele><time>2026-03-29T11:13:31.999Z</time></trkpt><trkpt lat="45.526914139067145" lon="10.441838350463971"><ele>216.0</ele><time>2026-03-29T11:13:32.999Z</time></trkpt><trkpt lat="45.52681184823518" lon="10.441827351838208"><ele>216.0</ele><time>2026-03-29T11:13:33.999Z</time></trkpt><trkpt lat="45.526722788448495" lon="10.441839048657993"><ele>214.75</ele><time>2026-03-29T11:13:34.999Z</time></trkpt><trkpt lat="45.52658076793799" lon="10.441851877842403"><ele>213.5</ele><time>2026-03-29T11:13:36.999Z</time></trkpt><trkpt lat="45.52646823748997" lon="10.441864329220696"><ele>212.25</ele><time>2026-03-29T11:13:37.999Z</time></trkpt><trkpt lat="45.52635221067535" lon="10.441882816285695"><ele>211.0</ele><time>2026-03-29T11:13:38.999Z</time></trkpt><trkpt lat="45.526228582817204" lon="10.441934795256701"><ele>209.25</ele><time>2026-03-29T11:13:39.999Z</time></trkpt><trkpt lat="45.52611939823111" lon="10.44197290685055"><ele>207.5</ele><time>2026-03-29T11:13:40.999Z</time></trkpt><trkpt lat="45.5259910459322" lon="10.441991564445598"><ele>205.75</ele><time>2026-03-29T11:13:41.999Z</time></trkpt><trkpt lat="45.52587153860848" lon="10.442052188040734"><ele>204.0</ele><time>2026-03-29T11:13:42.999Z</time></trkpt><trkpt lat="45.52575467011352" lon="10.442103895805564"><ele>203.25</ele><time>2026-03-29T11:13:43.999Z</time></trkpt><trkpt lat="45.5256392761007" lon="10.442185548025678"><ele>202.5</ele><time>2026-03-29T11:13:44.999Z</time></trkpt><trkpt lat="45.5255233977534" lon="10.44227683066433"><ele>201.75</ele><time>2026-03-29T11:13:45.999Z</time></trkpt><trkpt lat="45.525415469117924" lon="10.442352391974502"><ele>201.0</ele><time>2026-03-29T11:13:46.999Z</time></trkpt><trkpt lat="45.525303913344665" lon="10.442441260195897"><ele>200.25</ele><time>2026-03-29T11:13:47.999Z</time></trkpt><trkpt lat="45.5251790272552" lon="10.442541583025848"><ele>199.5</ele><time>2026-03-29T11:13:48.999Z</time></trkpt><trkpt lat="45.52505003685852" lon="10.442612408448973"><ele>198.75</ele><time>2026-03-29T11:13:49.999Z</time></trkpt><trkpt lat="45.52491542918506" lon="10.442681384256185"><ele>198.0</ele><time>2026-03-29T11:13:50.999Z</time></trkpt><trkpt lat="45.52477024296801" lon="10.442756593343978"><ele>198.0</ele><time>2026-03-29T11:13:51.999Z</time></trkpt><trkpt lat="45.5246150197717" lon="10.442832679511774"><ele>198.0</ele><time>2026-03-29T11:13:52.999Z</time></trkpt><trkpt lat="45.52445757696463" lon="10.44290782690385"><ele>198.0</ele><time>2026-03-29T11:13:53.999Z</time></trkpt><trkpt lat="45.524299712036736" lon="10.442992474974565"><ele>198.0</ele><time>2026-03-29T11:13:54.999Z</time></trkpt><trkpt lat="45.52415050193964" lon="10.443080855584444"><ele>198.0</ele><time>2026-03-29T11:13:55.999Z</time></trkpt><trkpt lat="45.52402865755879" lon="10.443147012470051"><ele>198.0</ele><time>2026-03-29T11:13:56.999Z</time></trkpt><trkpt lat="45.52391435650705" lon="10.443198436420413"><ele>198.0</ele><time>2026-03-29T11:13:57.999Z</time></trkpt><trkpt lat="45.52381234937436" lon="10.443213949648573"><ele>198.75</ele><time>2026-03-29T11:13:58.999Z</time></trkpt><trkpt lat="45.52369862748357" lon="10.443196671110057"><ele>199.5</ele><time>2026-03-29T11:13:59.999Z</time></trkpt><trkpt lat="45.52357579943588" lon="10.443157817303"><ele>200.25</ele><time>2026-03-29T11:14:00.999Z</time></trkpt><trkpt lat="45.52345403297156" lon="10.443108441001144"><ele>201.0</ele><time>2026-03-29T11:14:01.999Z</time></trkpt><trkpt lat="45.523323348713234" lon="10.44306352734019"><ele>201.0</ele><time>2026-03-29T11:14:02.999Z</time></trkpt><trkpt lat="45.523193489943445" lon="10.443033136212987"><ele>201.0</ele><time>2026-03-29T11:14:03.999Z</time></trkpt><trkpt lat="45.523068072426604" lon="10.443030628219468"><ele>201.0</ele><time>2026-03-29T11:14:04.999Z</time></trkpt><trkpt lat="45.52293737072592" lon="10.443038998947404"><ele>201.0</ele><time>2026-03-29T11:14:05.999Z</time></trkpt><trkpt lat="45.52280397469052" lon="10.443069937209108"><ele>201.0</ele><time>2026-03-29T11:14:06.999Z</time></trkpt><trkpt lat="45.52266272495633" lon="10.44312641386905"><ele>201.0</ele><time>2026-03-29T11:14:07.999Z</time></trkpt><trkpt lat="45.52252694654867" lon="10.443198023145657"><ele>201.0</ele><time>2026-03-29T11:14:08.999Z</time></trkpt><trkpt lat="45.52239871022765" lon="10.443286000766632"><ele>201.0</ele><time>2026-03-29T11:14:09.999Z</time></trkpt><trkpt lat="45.52226807534868" lon="10.443382470480339"><ele>201.0</ele><time>2026-03-29T11:14:10.999Z</time></trkpt><trkpt lat="45.52212909963375" lon="10.443461289219368"><ele>201.0</ele><time>2026-03-29T11:14:11.999Z</time></trkpt><trkpt lat="45.52199225168517" lon="10.443540660780407"><ele>201.0</ele><time>2026-03-29T11:14:12.999Z</time></trkpt><trkpt lat="45.52185223128214" lon="10.443627609445507"><ele>201.25</ele><time>2026-03-29T11:14:13.999Z</time></trkpt><trkpt lat="45.52172712595627" lon="10.443696621857582"><ele>201.5</ele><time>2026-03-29T11:14:14.999Z</time></trkpt><trkpt lat="45.52161658829973" lon="10.443747002431115"><ele>201.75</ele><time>2026-03-29T11:14:15.999Z</time></trkpt><trkpt lat="45.5215062596682" lon="10.443791164328651"><ele>202.0</ele><time>2026-03-29T11:14:16.999Z</time></trkpt><trkpt lat="45.521376635417475" lon="10.443816451363226"><ele>202.2</ele><time>2026-03-29T11:14:17.999Z</time></trkpt><trkpt lat="45.52126218079964" lon="10.443845477522153"><ele>202.39999999999998</ele><time>2026-03-29T11:14:18.999Z</time></trkpt><trkpt lat="45.521160684179655" lon="10.443875714867907"><ele>202.60000000000002</ele><time>2026-03-29T11:14:19.999Z</time></trkpt><trkpt lat="45.521069788858604" lon="10.44390069540142"><ele>202.8</ele><time>2026-03-29T11:14:20.999Z</time></trkpt><trkpt lat="45.52098980407463" lon="10.443912283145083"><ele>203.0</ele><time>2026-03-29T11:14:21.999Z</time></trkpt><trkpt lat="45.52091985628956" lon="10.443912704786685"><ele>201.5</ele><time>2026-03-29T11:14:22.998Z</time></trkpt><trkpt lat="45.520827560570105" lon="10.443885980105561"><ele>200.0</ele><time>2026-03-29T11:14:23.998Z</time></trkpt><trkpt lat="45.52071408636296" lon="10.443803245671988"><ele>198.5</ele><time>2026-03-29T11:14:24.998Z</time></trkpt><trkpt lat="45.52057737070778" lon="10.44377336755577"><ele>197.0</ele><time>2026-03-29T11:14:25.998Z</time></trkpt><trkpt lat="45.52042436507872" lon="10.443739929413125"><ele>196.0</ele><time>2026-03-29T11:14:26.998Z</time></trkpt><trkpt lat="45.52026062430349" lon="10.443704145216602"><ele>195.0</ele><time>2026-03-29T11:14:27.998Z</time></trkpt><trkpt lat="45.520092059019994" lon="10.443664741902717"><ele>194.0</ele><time>2026-03-29T11:14:28.998Z</time></trkpt><trkpt lat="45.51990767469681" lon="10.44363617027421"><ele>194.0</ele><time>2026-03-29T11:14:29.998Z</time></trkpt><trkpt lat="45.51972746895654" lon="10.443571457130812"><ele>194.0</ele><time>2026-03-29T11:14:30.998Z</time></trkpt><trkpt lat="45.5195465770718" lon="10.443470733451864"><ele>194.0</ele><time>2026-03-29T11:14:31.998Z</time></trkpt><trkpt lat="45.51935960499943" lon="10.443419129883647"><ele>193.66666666666669</ele><time>2026-03-29T11:14:32.998Z</time></trkpt><trkpt lat="45.51919108159561" lon="10.443362909605902"><ele>193.33333333333331</ele><time>2026-03-29T11:14:33.998Z</time></trkpt><trkpt lat="45.519037999774234" lon="10.443344925035742"><ele>193.0</ele><time>2026-03-29T11:14:34.998Z</time></trkpt><trkpt lat="45.51888155099799" lon="10.443362538163303"><ele>192.0</ele><time>2026-03-29T11:14:35.998Z</time></trkpt><trkpt lat="45.51871390102178" lon="10.443402290203373"><ele>191.0</ele><time>2026-03-29T11:14:36.998Z</time></trkpt><trkpt lat="45.518549358586476" lon="10.443396257603172"><ele>190.0</ele><time>2026-03-29T11:14:37.998Z</time></trkpt><trkpt lat="45.51839176655505" lon="10.443391249769375"><ele>190.0</ele><time>2026-03-29T11:14:38.998Z</time></trkpt><trkpt lat="45.5182485814657" lon="10.44331845909325"><ele>190.0</ele><time>2026-03-29T11:14:39.998Z</time></trkpt><trkpt lat="45.51811042233035" lon="10.443295301178456"><ele>190.0</ele><time>2026-03-29T11:14:40.998Z</time></trkpt><trkpt lat="45.51796680349114" lon="10.443255331408912"><ele>190.0</ele><time>2026-03-29T11:14:41.998Z</time></trkpt><trkpt lat="45.51782279746241" lon="10.443215253849232"><ele>189.0</ele><time>2026-03-29T11:14:42.998Z</time></trkpt><trkpt lat="45.51767859381114" lon="10.443172494896018"><ele>188.0</ele><time>2026-03-29T11:14:43.998Z</time></trkpt><trkpt lat="45.51753038677957" lon="10.443124792008495"><ele>187.0</ele><time>2026-03-29T11:14:44.998Z</time></trkpt><trkpt lat="45.51738599644904" lon="10.443063285776475"><ele>187.0</ele><time>2026-03-29T11:14:45.998Z</time></trkpt><trkpt lat="45.51723519593429" lon="10.442988589066795"><ele>187.0</ele><time>2026-03-29T11:14:46.998Z</time></trkpt><trkpt lat="45.51709832814645" lon="10.442918357282128"><ele>187.0</ele><time>2026-03-29T11:14:47.998Z</time></trkpt><trkpt lat="45.5169576369991" lon="10.442871121567595"><ele>186.25</ele><time>2026-03-29T11:14:48.998Z</time></trkpt><trkpt lat="45.516828908989226" lon="10.442784744477017"><ele>185.5</ele><time>2026-03-29T11:14:49.998Z</time></trkpt><trkpt lat="45.516694831254995" lon="10.442739057202557"><ele>184.75</ele><time>2026-03-29T11:14:50.998Z</time></trkpt><trkpt lat="45.516577635438715" lon="10.44267174101556"><ele>184.0</ele><time>2026-03-29T11:14:51.999Z</time></trkpt><trkpt lat="45.51646482566633" lon="10.442637116418139"><ele>184.0</ele><time>2026-03-29T11:14:52.999Z</time></trkpt><trkpt lat="45.51636886671224" lon="10.44260390909659"><ele>184.0</ele><time>2026-03-29T11:14:53.999Z</time></trkpt><trkpt lat="45.516279143673394" lon="10.442596526601719"><ele>184.0</ele><time>2026-03-29T11:14:54.999Z</time></trkpt><trkpt lat="45.51618590694462" lon="10.442649675347603"><ele>184.0</ele><time>2026-03-29T11:14:55.999Z</time></trkpt><trkpt lat="45.51612586126801" lon="10.442805191772171"><ele>184.0</ele><time>2026-03-29T11:14:56.999Z</time></trkpt><trkpt lat="45.516080022747936" lon="10.442949963906967"><ele>183.5</ele><time>2026-03-29T11:14:57.999Z</time></trkpt><trkpt lat="45.51604951987389" lon="10.443120311989302"><ele>183.0</ele><time>2026-03-29T11:14:58.999Z</time></trkpt><trkpt lat="45.516011558828104" lon="10.443315260677952"><ele>182.5</ele><time>2026-03-29T11:14:59.999Z</time></trkpt><trkpt lat="45.515933977816594" lon="10.443482701674002"><ele>182.0</ele><time>2026-03-29T11:15:00.999Z</time></trkpt><trkpt lat="45.51583296608279" lon="10.443620695326873"><ele>182.0</ele><time>2026-03-29T11:15:01.999Z</time></trkpt><trkpt lat="45.51572599091835" lon="10.443681105373512"><ele>182.0</ele><time>2026-03-29T11:15:02.999Z</time></trkpt><trkpt lat="45.515633765287305" lon="10.443751112481149"><ele>182.0</ele><time>2026-03-29T11:15:03.999Z</time></trkpt><trkpt lat="45.51555624658726" lon="10.44381223532257"><ele>182.0</ele><time>2026-03-29T11:15:04.999Z</time></trkpt><trkpt lat="45.51547648075241" lon="10.443886678963512"><ele>182.0</ele><time>2026-03-29T11:15:05.999Z</time></trkpt><trkpt lat="45.51560077506475" lon="10.444658655121076"><ele>182.0</ele><time>2026-03-29T11:15:06.999Z</time></trkpt><trkpt lat="45.515554672642324" lon="10.444877152939222"><ele>182.0</ele><time>2026-03-29T11:15:07.999Z</time></trkpt><trkpt lat="45.51551138597349" lon="10.445093033253878"><ele>182.0</ele><time>2026-03-29T11:15:08.999Z</time></trkpt><trkpt lat="45.51546909124598" lon="10.445277094480382"><ele>182.0</ele><time>2026-03-29T11:15:09.999Z</time></trkpt><trkpt lat="45.515434259803754" lon="10.445434603603932"><ele>182.0</ele><time>2026-03-29T11:15:10.999Z</time></trkpt><trkpt lat="45.51539946039866" lon="10.445576605569084"><ele>182.0</ele><time>2026-03-29T11:15:11.999Z</time></trkpt><trkpt lat="45.51537103757593" lon="10.445711488158445"><ele>182.0</ele><time>2026-03-29T11:15:12.999Z</time></trkpt><trkpt lat="45.51532783021545" lon="10.4458806173421"><ele>182.0</ele><time>2026-03-29T11:15:13.999Z</time></trkpt><trkpt lat="45.515269333606945" lon="10.44607851767792"><ele>181.66666666666666</ele><time>2026-03-29T11:15:14.999Z</time></trkpt><trkpt lat="45.515193120093244" lon="10.446307651887642"><ele>181.33333333333334</ele><time>2026-03-29T11:15:15.999Z</time></trkpt><trkpt lat="45.51510387037907" lon="10.446535922180633"><ele>181.0</ele><time>2026-03-29T11:15:16.999Z</time></trkpt><trkpt lat="45.5150175954412" lon="10.446796378179334"><ele>181.0</ele><time>2026-03-29T11:15:17.999Z</time></trkpt><trkpt lat="45.51493795613488" lon="10.447066564760638"><ele>181.0</ele><time>2026-03-29T11:15:18.999Z</time></trkpt><trkpt lat="45.51486344882893" lon="10.447344222409155"><ele>181.0</ele><time>2026-03-29T11:15:19.999Z</time></trkpt><trkpt lat="45.51478394185572" lon="10.447625427032241"><ele>181.33333333333334</ele><time>2026-03-29T11:15:20.999Z</time></trkpt><trkpt lat="45.514705715093676" lon="10.447913631963662"><ele>181.66666666666666</ele><time>2026-03-29T11:15:21.999Z</time></trkpt><trkpt lat="45.51463703592199" lon="10.448210512855226"><ele>182.0</ele><time>2026-03-29T11:15:22.999Z</time></trkpt><trkpt lat="45.51456265032162" lon="10.448513336551457"><ele>182.5</ele><time>2026-03-29T11:15:23.999Z</time></trkpt><trkpt lat="45.514489852802946" lon="10.44881997584229"><ele>183.0</ele><time>2026-03-29T11:15:24.999Z</time></trkpt><trkpt lat="45.51441422631044" lon="10.449139896608452"><ele>183.0</ele><time>2026-03-29T11:15:25.999Z</time></trkpt><trkpt lat="45.514341976703875" lon="10.449452587598266"><ele>183.0</ele><time>2026-03-29T11:15:26.999Z</time></trkpt><trkpt lat="45.514278589773326" lon="10.449763093811846"><ele>183.66666666666666</ele><time>2026-03-29T11:15:27.999Z</time></trkpt><trkpt lat="45.51421060986669" lon="10.450069287639574"><ele>184.33333333333331</ele><time>2026-03-29T11:15:28.999Z</time></trkpt><trkpt lat="45.51414302378549" lon="10.450373335545377"><ele>185.0</ele><time>2026-03-29T11:15:29.999Z</time></trkpt><trkpt lat="45.514080697185655" lon="10.45067925854914"><ele>185.0</ele><time>2026-03-29T11:15:30.999Z</time></trkpt><trkpt lat="45.5140354004899" lon="10.450977239522672"><ele>185.0</ele><time>2026-03-29T11:15:31.999Z</time></trkpt><trkpt lat="45.51399193082008" lon="10.451240175412696"><ele>185.0</ele><time>2026-03-29T11:15:32.999Z</time></trkpt><trkpt lat="45.5139488260453" lon="10.451505114752388"><ele>185.33333333333331</ele><time>2026-03-29T11:15:33.999Z</time></trkpt><trkpt lat="45.51391046321223" lon="10.451735647148302"><ele>185.66666666666666</ele><time>2026-03-29T11:15:34.999Z</time></trkpt><trkpt lat="45.51386875089224" lon="10.451984801602695"><ele>186.0</ele><time>2026-03-29T11:15:35.999Z</time></trkpt><trkpt lat="45.513819665921254" lon="10.452263742030507"><ele>186.0</ele><time>2026-03-29T11:15:36.999Z</time></trkpt><trkpt lat="45.51376586333379" lon="10.452556440463491"><ele>186.0</ele><time>2026-03-29T11:15:37.999Z</time></trkpt><trkpt lat="45.51370830630392" lon="10.45286356757293"><ele>186.0</ele><time>2026-03-29T11:15:38.999Z</time></trkpt><trkpt lat="45.513646167686595" lon="10.453197401852863"><ele>185.0</ele><time>2026-03-29T11:15:39.999Z</time></trkpt><trkpt lat="45.513587816885874" lon="10.45352690058462"><ele>184.0</ele><time>2026-03-29T11:15:40.999Z</time></trkpt><trkpt lat="45.51353223420791" lon="10.453856733540922"><ele>184.0</ele><time>2026-03-29T11:15:41.999Z</time></trkpt><trkpt lat="45.51349716334993" lon="10.45413184463691"><ele>184.0</ele><time>2026-03-29T11:15:42.999Z</time></trkpt><trkpt lat="45.51346176842313" lon="10.454369765554507"><ele>184.0</ele><time>2026-03-29T11:15:43.999Z</time></trkpt><trkpt lat="45.51343918905626" lon="10.454545187003982"><ele>184.2</ele><time>2026-03-29T11:15:44.999Z</time></trkpt><trkpt lat="45.513406908238224" lon="10.454704836590368"><ele>184.39999999999998</ele><time>2026-03-29T11:15:45.999Z</time></trkpt><trkpt lat="45.51338848540348" lon="10.454852658281423"><ele>184.6</ele><time>2026-03-29T11:15:46.999Z</time></trkpt><trkpt lat="45.51335300577244" lon="10.454992551284809"><ele>184.8</ele><time>2026-03-29T11:15:47.999Z</time></trkpt><trkpt lat="45.51330278961564" lon="10.455097500180743"><ele>185.0</ele><time>2026-03-29T11:15:48.999Z</time></trkpt><trkpt lat="45.51314773018094" lon="10.45511352886059"><ele>185.0</ele><time>2026-03-29T11:15:50.999Z</time></trkpt><trkpt lat="45.51308459267803" lon="10.455123869299117"><ele>185.0</ele><time>2026-03-29T11:15:51.999Z</time></trkpt><trkpt lat="45.5129685348544" lon="10.455140585889389"><ele>185.0</ele><time>2026-03-29T11:15:54.999Z</time></trkpt><trkpt lat="45.51290180447452" lon="10.455119779474666"><ele>185.0</ele><time>2026-03-29T11:15:55.999Z</time></trkpt><trkpt lat="45.51282036473968" lon="10.455111772093503"><ele>185.0</ele><time>2026-03-29T11:15:56.999Z</time></trkpt><trkpt lat="45.51273116736824" lon="10.455132728910538"><ele>185.0</ele><time>2026-03-29T11:15:57.999Z</time></trkpt><trkpt lat="45.512650577428424" lon="10.455163468463603"><ele>185.0</ele><time>2026-03-29T11:15:58.999Z</time></trkpt><trkpt lat="45.51255843649646" lon="10.455186744233284"><ele>185.0</ele><time>2026-03-29T11:15:59.999Z</time></trkpt><trkpt lat="45.51247618621421" lon="10.455248964063493"><ele>185.0</ele><time>2026-03-29T11:16:00.999Z</time></trkpt><trkpt lat="45.51238816578107" lon="10.455301664604105"><ele>185.0</ele><time>2026-03-29T11:16:01.999Z</time></trkpt><trkpt lat="45.51228266917958" lon="10.45531973403066"><ele>185.0</ele><time>2026-03-29T11:16:02.999Z</time></trkpt><trkpt lat="45.51218458715877" lon="10.455464972624874"><ele>185.0</ele><time>2026-03-29T11:16:03.999Z</time></trkpt><trkpt lat="45.51207369182594" lon="10.45556259059752"><ele>185.0</ele><time>2026-03-29T11:16:04.999Z</time></trkpt><trkpt lat="45.51196226205171" lon="10.455681135907813"><ele>185.0</ele><time>2026-03-29T11:16:05.999Z</time></trkpt><trkpt lat="45.5118500970615" lon="10.455825626226375"><ele>185.0</ele><time>2026-03-29T11:16:06.999Z</time></trkpt><trkpt lat="45.511710256706245" lon="10.455963363124502"><ele>185.0</ele><time>2026-03-29T11:16:07.999Z</time></trkpt><trkpt lat="45.51158845970804" lon="10.456117827911902"><ele>185.0</ele><time>2026-03-29T11:16:08.999Z</time></trkpt><trkpt lat="45.51148556472553" lon="10.456282977295345"><ele>185.0</ele><time>2026-03-29T11:16:09.999Z</time></trkpt><trkpt lat="45.511349885954075" lon="10.456425639847085"><ele>185.0</ele><time>2026-03-29T11:16:10.999Z</time></trkpt><trkpt lat="45.5112168579432" lon="10.456592894044661"><ele>185.0</ele><time>2026-03-29T11:16:11.999Z</time></trkpt><trkpt lat="45.51109056274926" lon="10.456749865886836"><ele>185.0</ele><time>2026-03-29T11:16:12.999Z</time></trkpt><trkpt lat="45.510966349656876" lon="10.456904250199019"><ele>185.0</ele><time>2026-03-29T11:16:13.999Z</time></trkpt><trkpt lat="45.510849402416454" lon="10.457049603726617"><ele>185.0</ele><time>2026-03-29T11:16:14.999Z</time></trkpt><trkpt lat="45.51074820666889" lon="10.457175285910807"><ele>185.0</ele><time>2026-03-29T11:16:15.999Z</time></trkpt><trkpt lat="45.51063398156175" lon="10.457313465848559"><ele>185.0</ele><time>2026-03-29T11:16:16.999Z</time></trkpt><trkpt lat="45.51050443266524" lon="10.457479022792674"><ele>184.66666666666666</ele><time>2026-03-29T11:16:17.999Z</time></trkpt><trkpt lat="45.51037624028411" lon="10.457664082184671"><ele>184.33333333333334</ele><time>2026-03-29T11:16:18.999Z</time></trkpt><trkpt lat="45.51025621703482" lon="10.457877680593018"><ele>184.0</ele><time>2026-03-29T11:16:19.999Z</time></trkpt><trkpt lat="45.510133236273376" lon="10.458075180099007"><ele>184.0</ele><time>2026-03-29T11:16:20.999Z</time></trkpt><trkpt lat="45.50999712424912" lon="10.458277454309254"><ele>184.0</ele><time>2026-03-29T11:16:21.999Z</time></trkpt><trkpt lat="45.50986983125946" lon="10.458504699080924"><ele>184.0</ele><time>2026-03-29T11:16:22.999Z</time></trkpt><trkpt lat="45.50972728540378" lon="10.458723095243489"><ele>184.0</ele><time>2026-03-29T11:16:23.999Z</time></trkpt><trkpt lat="45.50959207501148" lon="10.458949179849435"><ele>184.0</ele><time>2026-03-29T11:16:24.999Z</time></trkpt><trkpt lat="45.50945888683426" lon="10.45919425156849"><ele>184.0</ele><time>2026-03-29T11:16:25.999Z</time></trkpt><trkpt lat="45.509330534546855" lon="10.459443992783033"><ele>184.0</ele><time>2026-03-29T11:16:26.999Z</time></trkpt><trkpt lat="45.509205970863995" lon="10.45970130837395"><ele>184.0</ele><time>2026-03-29T11:16:27.999Z</time></trkpt><trkpt lat="45.50908063213617" lon="10.459955216022056"><ele>184.0</ele><time>2026-03-29T11:16:28.999Z</time></trkpt><trkpt lat="45.5089513037606" lon="10.46020963366631"><ele>184.0</ele><time>2026-03-29T11:16:29.999Z</time></trkpt><trkpt lat="45.508839889742944" lon="10.460460260621982"><ele>184.0</ele><time>2026-03-29T11:16:30.999Z</time></trkpt><trkpt lat="45.50870615754492" lon="10.460655785742656"><ele>184.0</ele><time>2026-03-29T11:16:31.998Z</time></trkpt><trkpt lat="45.50858203518748" lon="10.460858067972827"><ele>184.0</ele><time>2026-03-29T11:16:32.998Z</time></trkpt><trkpt lat="45.5084535188695" lon="10.461046933248117"><ele>184.0</ele><time>2026-03-29T11:16:33.998Z</time></trkpt><trkpt lat="45.508329786884985" lon="10.461218343165854"><ele>184.0</ele><time>2026-03-29T11:16:34.998Z</time></trkpt><trkpt lat="45.50823119610983" lon="10.461373945099721"><ele>184.5</ele><time>2026-03-29T11:16:35.998Z</time></trkpt><trkpt lat="45.508168091387546" lon="10.461530731289136"><ele>185.0</ele><time>2026-03-29T11:16:36.998Z</time></trkpt><trkpt lat="45.50812639528859" lon="10.461697120010957"><ele>185.5</ele><time>2026-03-29T11:16:37.998Z</time></trkpt><trkpt lat="45.50817298009641" lon="10.461934533058225"><ele>186.0</ele><time>2026-03-29T11:16:38.998Z</time></trkpt><trkpt lat="45.508199329864865" lon="10.462178546118132"><ele>186.66666666666666</ele><time>2026-03-29T11:16:39.998Z</time></trkpt><trkpt lat="45.50823434816585" lon="10.462427271272558"><ele>187.33333333333331</ele><time>2026-03-29T11:16:40.998Z</time></trkpt><trkpt lat="45.508243980705885" lon="10.462682976348322"><ele>188.0</ele><time>2026-03-29T11:16:41.998Z</time></trkpt><trkpt lat="45.50826771428987" lon="10.462908545763192"><ele>188.0</ele><time>2026-03-29T11:16:42.998Z</time></trkpt><trkpt lat="45.50828802626989" lon="10.463101595553285"><ele>188.0</ele><time>2026-03-29T11:16:43.998Z</time></trkpt><trkpt lat="45.5083052947609" lon="10.463265719219018"><ele>188.0</ele><time>2026-03-29T11:16:44.998Z</time></trkpt><trkpt lat="45.50831776273133" lon="10.46339760212755"><ele>188.0</ele><time>2026-03-29T11:16:45.998Z</time></trkpt><trkpt lat="45.50832584198441" lon="10.463488338528485"><ele>188.0</ele><time>2026-03-29T11:16:46.998Z</time></trkpt><trkpt lat="45.50822361900426" lon="10.4636336013711"><ele>188.0</ele><time>2026-03-29T11:16:50.998Z</time></trkpt><trkpt lat="45.50809832923841" lon="10.463654203472528"><ele>188.0</ele><time>2026-03-29T11:16:52.998Z</time></trkpt><trkpt lat="45.50802827589838" lon="10.463662259670802"><ele>188.0</ele><time>2026-03-29T11:16:53.998Z</time></trkpt><trkpt lat="45.507946293662684" lon="10.463671890844465"><ele>188.0</ele><time>2026-03-29T11:16:54.998Z</time></trkpt><trkpt lat="45.507861752710845" lon="10.463679567036257"><ele>188.0</ele><time>2026-03-29T11:16:55.998Z</time></trkpt><trkpt lat="45.50777345189524" lon="10.463687584581871"><ele>186.5</ele><time>2026-03-29T11:16:56.998Z</time></trkpt><trkpt lat="45.50770349369637" lon="10.463693936671786"><ele>185.0</ele><time>2026-03-29T11:16:58Z</time></trkpt><trkpt lat="45.50759041722141" lon="10.46370420381359"><ele>183.5</ele><time>2026-03-29T11:16:59Z</time></trkpt><trkpt lat="45.50747661134478" lon="10.463714537183778"><ele>182.0</ele><time>2026-03-29T11:17:00Z</time></trkpt><trkpt lat="45.5073244261946" lon="10.463728362195106"><ele>182.0</ele><time>2026-03-29T11:17:01Z</time></trkpt><trkpt lat="45.50719176743849" lon="10.463739982388047"><ele>182.0</ele><time>2026-03-29T11:17:02Z</time></trkpt><trkpt lat="45.50709815556228" lon="10.463744347321237"><ele>182.0</ele><time>2026-03-29T11:17:03Z</time></trkpt><trkpt lat="45.50689171467591" lon="10.463637195925125"><ele>182.0</ele><time>2026-03-29T11:17:04Z</time></trkpt><trkpt lat="45.506869623597275" lon="10.463354392550515"><ele>182.0</ele><time>2026-03-29T11:17:05Z</time></trkpt><trkpt lat="45.50676530730321" lon="10.463169217092373"><ele>182.0</ele><time>2026-03-29T11:17:06Z</time></trkpt><trkpt lat="45.50673709262714" lon="10.46302608293469"><ele>182.0</ele><time>2026-03-29T11:17:08Z</time></trkpt><trkpt lat="45.50718317575917" lon="10.462731585525557"><ele>184.0</ele><time>2026-03-29T11:17:10Z</time></trkpt><trkpt lat="45.507251133894364" lon="10.462702952760157"><ele>184.0</ele><time>2026-03-29T11:17:11Z</time></trkpt><trkpt lat="45.50735728342706" lon="10.462693520700594"><ele>184.0</ele><time>2026-03-29T11:17:13Z</time></trkpt><trkpt lat="45.50744006926354" lon="10.462703296742903"><ele>184.0</ele><time>2026-03-29T11:17:16Z</time></trkpt></trkseg></trk></gpx>